sensor_id;sensor_type;location;lat;lon;timestamp;P1;durP1;ratioP1;P2;durP2;ratioP2
19343;SDS011;9808;52.402;16.678;2022-07-12T00:00:15;2.10;;;0.67;;
19343;SDS011;9808;52.402;16.678;2022-07-12T00:02:42;2.03;;;0.90;;
19343;SDS011;9808;52.402;16.678;2022-07-12T00:05:09;1.80;;;0.80;;
19343;SDS011;9808;52.402;16.678;2022-07-12T00:07:36;1.23;;;0.80;;
19343;SDS011;9808;52.402;16.678;2022-07-12T00:10:03;0.63;;;0.50;;
19343;SDS011;9808;52.402;16.678;2022-07-12T00:12:30;1.80;;;0.80;;
19343;SDS011;9808;52.402;16.678;2022-07-12T00:14:57;3.33;;;0.90;;
19343;SDS011;9808;52.402;16.678;2022-07-12T00:17:24;1.73;;;0.70;;
19343;SDS011;9808;52.402;16.678;2022-07-12T00:19:50;0.73;;;0.40;;
19343;SDS011;9808;52.402;16.678;2022-07-12T00:22:17;1.00;;;0.57;;
19343;SDS011;9808;52.402;16.678;2022-07-12T00:24:44;1.57;;;0.80;;
19343;SDS011;9808;52.402;16.678;2022-07-12T00:27:11;1.37;;;0.77;;
19343;SDS011;9808;52.402;16.678;2022-07-12T00:29:37;1.07;;;0.60;;
19343;SDS011;9808;52.402;16.678;2022-07-12T00:32:04;1.20;;;0.60;;
19343;SDS011;9808;52.402;16.678;2022-07-12T00:34:31;1.13;;;0.67;;
19343;SDS011;9808;52.402;16.678;2022-07-12T00:36:58;1.97;;;0.97;;
19343;SDS011;9808;52.402;16.678;2022-07-12T00:39:25;1.30;;;0.70;;
19343;SDS011;9808;52.402;16.678;2022-07-12T00:41:51;1.43;;;0.70;;
19343;SDS011;9808;52.402;16.678;2022-07-12T00:44:18;1.27;;;0.70;;
19343;SDS011;9808;52.402;16.678;2022-07-12T00:46:45;2.97;;;0.80;;
19343;SDS011;9808;52.402;16.678;2022-07-12T00:49:12;0.60;;;0.50;;
19343;SDS011;9808;52.402;16.678;2022-07-12T00:51:44;2.37;;;0.90;;
19343;SDS011;9808;52.402;16.678;2022-07-12T00:54:11;1.73;;;0.70;;
19343;SDS011;9808;52.402;16.678;2022-07-12T00:56:39;1.53;;;0.70;;
19343;SDS011;9808;52.402;16.678;2022-07-12T00:59:06;1.67;;;0.87;;
19343;SDS011;9808;52.402;16.678;2022-07-12T01:01:33;2.23;;;0.90;;
19343;SDS011;9808;52.402;16.678;2022-07-12T01:04:00;1.53;;;0.90;;
19343;SDS011;9808;52.402;16.678;2022-07-12T01:06:27;2.80;;;1.10;;
19343;SDS011;9808;52.402;16.678;2022-07-12T01:08:56;1.73;;;0.83;;
19343;SDS011;9808;52.402;16.678;2022-07-12T01:11:25;2.00;;;0.63;;
19343;SDS011;9808;52.402;16.678;2022-07-12T01:13:52;1.60;;;0.70;;
19343;SDS011;9808;52.402;16.678;2022-07-12T01:16:20;2.80;;;0.97;;
19343;SDS011;9808;52.402;16.678;2022-07-12T01:18:47;0.90;;;0.50;;
19343;SDS011;9808;52.402;16.678;2022-07-12T01:21:16;0.80;;;0.53;;
19343;SDS011;9808;52.402;16.678;2022-07-12T01:23:49;2.07;;;0.97;;
19343;SDS011;9808;52.402;16.678;2022-07-12T01:26:16;2.40;;;0.80;;
19343;SDS011;9808;52.402;16.678;2022-07-12T01:28:43;4.30;;;0.93;;
19343;SDS011;9808;52.402;16.678;2022-07-12T01:31:10;2.23;;;0.80;;
19343;SDS011;9808;52.402;16.678;2022-07-12T01:33:37;1.53;;;0.70;;
19343;SDS011;9808;52.402;16.678;2022-07-12T01:36:04;3.70;;;1.17;;
19343;SDS011;9808;52.402;16.678;2022-07-12T01:38:31;0.90;;;0.70;;
19343;SDS011;9808;52.402;16.678;2022-07-12T01:40:57;3.57;;;1.10;;
19343;SDS011;9808;52.402;16.678;2022-07-12T01:43:24;1.97;;;0.80;;
19343;SDS011;9808;52.402;16.678;2022-07-12T01:45:51;2.13;;;0.87;;
19343;SDS011;9808;52.402;16.678;2022-07-12T01:48:18;2.20;;;1.07;;
19343;SDS011;9808;52.402;16.678;2022-07-12T01:50:45;2.00;;;0.77;;
19343;SDS011;9808;52.402;16.678;2022-07-12T01:53:13;6.77;;;1.57;;
19343;SDS011;9808;52.402;16.678;2022-07-12T01:55:40;3.40;;;0.77;;
19343;SDS011;9808;52.402;16.678;2022-07-12T01:58:07;1.97;;;0.87;;
19343;SDS011;9808;52.402;16.678;2022-07-12T02:00:36;3.90;;;1.00;;
19343;SDS011;9808;52.402;16.678;2022-07-12T02:03:03;2.43;;;0.90;;
19343;SDS011;9808;52.402;16.678;2022-07-12T02:05:30;1.47;;;0.90;;
19343;SDS011;9808;52.402;16.678;2022-07-12T02:07:57;3.20;;;0.90;;
19343;SDS011;9808;52.402;16.678;2022-07-12T02:10:23;1.53;;;0.77;;
19343;SDS011;9808;52.402;16.678;2022-07-12T02:12:50;1.67;;;0.83;;
19343;SDS011;9808;52.402;16.678;2022-07-12T02:15:17;4.53;;;0.83;;
19343;SDS011;9808;52.402;16.678;2022-07-12T02:17:44;1.53;;;0.70;;
19343;SDS011;9808;52.402;16.678;2022-07-12T02:20:12;1.20;;;0.60;;
19343;SDS011;9808;52.402;16.678;2022-07-12T02:22:39;2.40;;;0.90;;
19343;SDS011;9808;52.402;16.678;2022-07-12T02:25:06;3.07;;;0.90;;
19343;SDS011;9808;52.402;16.678;2022-07-12T02:27:33;1.37;;;0.77;;
19343;SDS011;9808;52.402;16.678;2022-07-12T02:29:59;1.80;;;0.93;;
19343;SDS011;9808;52.402;16.678;2022-07-12T02:32:27;6.30;;;0.83;;
19343;SDS011;9808;52.402;16.678;2022-07-12T02:34:54;2.17;;;1.10;;
19343;SDS011;9808;52.402;16.678;2022-07-12T02:37:21;0.93;;;0.67;;
19343;SDS011;9808;52.402;16.678;2022-07-12T02:39:48;3.87;;;0.90;;
19343;SDS011;9808;52.402;16.678;2022-07-12T02:42:15;3.57;;;1.17;;
19343;SDS011;9808;52.402;16.678;2022-07-12T02:44:41;2.03;;;1.00;;
19343;SDS011;9808;52.402;16.678;2022-07-12T02:47:08;3.17;;;1.33;;
19343;SDS011;9808;52.402;16.678;2022-07-12T02:49:35;1.70;;;0.90;;
19343;SDS011;9808;52.402;16.678;2022-07-12T02:52:02;2.10;;;0.90;;
19343;SDS011;9808;52.402;16.678;2022-07-12T02:54:29;1.73;;;0.90;;
19343;SDS011;9808;52.402;16.678;2022-07-12T02:56:56;2.00;;;0.93;;
19343;SDS011;9808;52.402;16.678;2022-07-12T02:59:22;2.40;;;1.00;;
19343;SDS011;9808;52.402;16.678;2022-07-12T03:01:50;3.10;;;0.90;;
19343;SDS011;9808;52.402;16.678;2022-07-12T03:04:17;2.80;;;1.00;;
19343;SDS011;9808;52.402;16.678;2022-07-12T03:06:44;3.40;;;1.10;;
19343;SDS011;9808;52.402;16.678;2022-07-12T03:09:10;2.60;;;1.07;;
19343;SDS011;9808;52.402;16.678;2022-07-12T03:11:38;3.20;;;1.10;;
19343;SDS011;9808;52.402;16.678;2022-07-12T03:14:05;2.67;;;0.83;;
19343;SDS011;9808;52.402;16.678;2022-07-12T03:16:32;1.33;;;0.70;;
19343;SDS011;9808;52.402;16.678;2022-07-12T03:18:59;2.37;;;0.80;;
19343;SDS011;9808;52.402;16.678;2022-07-12T03:21:25;1.50;;;0.70;;
19343;SDS011;9808;52.402;16.678;2022-07-12T03:23:52;2.40;;;0.97;;
19343;SDS011;9808;52.402;16.678;2022-07-12T03:26:19;2.93;;;1.07;;
19343;SDS011;9808;52.402;16.678;2022-07-12T03:28:48;3.90;;;1.53;;
19343;SDS011;9808;52.402;16.678;2022-07-12T03:31:14;6.10;;;1.40;;
19343;SDS011;9808;52.402;16.678;2022-07-12T03:33:41;4.03;;;1.10;;
19343;SDS011;9808;52.402;16.678;2022-07-12T03:36:08;2.00;;;1.00;;
19343;SDS011;9808;52.402;16.678;2022-07-12T03:38:35;3.00;;;1.20;;
19343;SDS011;9808;52.402;16.678;2022-07-12T03:41:03;2.10;;;1.00;;
19343;SDS011;9808;52.402;16.678;2022-07-12T03:43:29;2.05;;;0.90;;
19343;SDS011;9808;52.402;16.678;2022-07-12T03:45:56;2.00;;;1.10;;
19343;SDS011;9808;52.402;16.678;2022-07-12T03:48:23;3.47;;;1.13;;
19343;SDS011;9808;52.402;16.678;2022-07-12T03:50:50;4.43;;;1.53;;
19343;SDS011;9808;52.402;16.678;2022-07-12T03:53:17;2.83;;;1.20;;
19343;SDS011;9808;52.402;16.678;2022-07-12T03:55:44;6.65;;;1.27;;
19343;SDS011;9808;52.402;16.678;2022-07-12T03:58:10;3.20;;;1.20;;
19343;SDS011;9808;52.402;16.678;2022-07-12T04:00:37;2.63;;;1.20;;
19343;SDS011;9808;52.402;16.678;2022-07-12T04:03:06;6.03;;;1.50;;
19343;SDS011;9808;52.402;16.678;2022-07-12T04:05:33;3.30;;;1.30;;
19343;SDS011;9808;52.402;16.678;2022-07-12T04:07:59;1.67;;;1.10;;
19343;SDS011;9808;52.402;16.678;2022-07-12T04:10:28;3.07;;;1.20;;
19343;SDS011;9808;52.402;16.678;2022-07-12T04:12:55;4.00;;;1.20;;
19343;SDS011;9808;52.402;16.678;2022-07-12T04:15:22;2.13;;;1.15;;
19343;SDS011;9808;52.402;16.678;2022-07-12T04:17:49;3.87;;;1.23;;
19343;SDS011;9808;52.402;16.678;2022-07-12T04:20:15;3.15;;;1.27;;
19343;SDS011;9808;52.402;16.678;2022-07-12T04:22:42;5.38;;;1.35;;
19343;SDS011;9808;52.402;16.678;2022-07-12T04:25:09;2.27;;;0.90;;
19343;SDS011;9808;52.402;16.678;2022-07-12T04:27:36;6.27;;;1.27;;
19343;SDS011;9808;52.402;16.678;2022-07-12T04:30:03;5.88;;;1.42;;
19343;SDS011;9808;52.402;16.678;2022-07-12T04:32:30;4.50;;;1.58;;
19343;SDS011;9808;52.402;16.678;2022-07-12T04:34:58;2.50;;;1.03;;
19343;SDS011;9808;52.402;16.678;2022-07-12T04:37:25;1.88;;;0.98;;
19343;SDS011;9808;52.402;16.678;2022-07-12T04:39:52;1.70;;;0.98;;
19343;SDS011;9808;52.402;16.678;2022-07-12T04:42:18;2.80;;;1.25;;
19343;SDS011;9808;52.402;16.678;2022-07-12T04:44:45;2.03;;;1.10;;
19343;SDS011;9808;52.402;16.678;2022-07-12T04:47:12;8.20;;;1.15;;
19343;SDS011;9808;52.402;16.678;2022-07-12T04:49:39;6.80;;;1.33;;
19343;SDS011;9808;52.402;16.678;2022-07-12T04:52:06;3.00;;;1.30;;
19343;SDS011;9808;52.402;16.678;2022-07-12T04:54:32;2.92;;;0.80;;
19343;SDS011;9808;52.402;16.678;2022-07-12T04:56:59;5.07;;;1.40;;
19343;SDS011;9808;52.402;16.678;2022-07-12T04:59:26;1.75;;;0.95;;
19343;SDS011;9808;52.402;16.678;2022-07-12T05:01:53;3.92;;;1.38;;
19343;SDS011;9808;52.402;16.678;2022-07-12T05:04:20;3.65;;;1.27;;
19343;SDS011;9808;52.402;16.678;2022-07-12T05:06:47;1.95;;;0.90;;
19343;SDS011;9808;52.402;16.678;2022-07-12T05:09:14;4.38;;;1.20;;
19343;SDS011;9808;52.402;16.678;2022-07-12T05:11:41;1.83;;;1.00;;
19343;SDS011;9808;52.402;16.678;2022-07-12T05:14:07;4.82;;;1.40;;
19343;SDS011;9808;52.402;16.678;2022-07-12T05:16:35;3.42;;;1.55;;
19343;SDS011;9808;52.402;16.678;2022-07-12T05:19:02;3.05;;;1.20;;
19343;SDS011;9808;52.402;16.678;2022-07-12T05:21:28;4.70;;;1.65;;
19343;SDS011;9808;52.402;16.678;2022-07-12T05:23:55;1.85;;;0.80;;
19343;SDS011;9808;52.402;16.678;2022-07-12T05:26:22;2.08;;;1.02;;
19343;SDS011;9808;52.402;16.678;2022-07-12T05:28:49;2.05;;;1.08;;
19343;SDS011;9808;52.402;16.678;2022-07-12T05:31:15;2.47;;;0.90;;
19343;SDS011;9808;52.402;16.678;2022-07-12T05:33:42;3.78;;;1.30;;
19343;SDS011;9808;52.402;16.678;2022-07-12T05:36:09;3.15;;;1.15;;
19343;SDS011;9808;52.402;16.678;2022-07-12T05:38:36;2.97;;;1.33;;
19343;SDS011;9808;52.402;16.678;2022-07-12T05:41:02;1.90;;;1.10;;
19343;SDS011;9808;52.402;16.678;2022-07-12T05:43:29;7.63;;;1.38;;
19343;SDS011;9808;52.402;16.678;2022-07-12T05:45:56;3.67;;;1.50;;
19343;SDS011;9808;52.402;16.678;2022-07-12T05:48:23;3.65;;;1.30;;
19343;SDS011;9808;52.402;16.678;2022-07-12T05:50:50;1.85;;;1.02;;
19343;SDS011;9808;52.402;16.678;2022-07-12T05:53:16;4.50;;;1.00;;
19343;SDS011;9808;52.402;16.678;2022-07-12T05:55:53;5.97;;;1.25;;
19343;SDS011;9808;52.402;16.678;2022-07-12T05:58:20;3.58;;;1.02;;
19343;SDS011;9808;52.402;16.678;2022-07-12T06:00:48;3.30;;;1.33;;
19343;SDS011;9808;52.402;16.678;2022-07-12T06:03:15;2.17;;;0.98;;
19343;SDS011;9808;52.402;16.678;2022-07-12T06:05:43;2.80;;;1.08;;
19343;SDS011;9808;52.402;16.678;2022-07-12T06:08:10;2.65;;;0.90;;
19343;SDS011;9808;52.402;16.678;2022-07-12T06:10:37;2.75;;;1.15;;
19343;SDS011;9808;52.402;16.678;2022-07-12T06:13:03;3.03;;;1.10;;
19343;SDS011;9808;52.402;16.678;2022-07-12T06:15:30;2.13;;;1.02;;
19343;SDS011;9808;52.402;16.678;2022-07-12T06:18:01;3.38;;;1.00;;
19343;SDS011;9808;52.402;16.678;2022-07-12T06:20:29;3.45;;;0.73;;
19343;SDS011;9808;52.402;16.678;2022-07-12T06:22:56;2.88;;;1.00;;
19343;SDS011;9808;52.402;16.678;2022-07-12T06:25:23;5.72;;;1.00;;
19343;SDS011;9808;52.402;16.678;2022-07-12T06:28:10;1.98;;;0.70;;
19343;SDS011;9808;52.402;16.678;2022-07-12T06:30:37;5.55;;;0.77;;
19343;SDS011;9808;52.402;16.678;2022-07-12T06:33:04;1.65;;;0.70;;
19343;SDS011;9808;52.402;16.678;2022-07-12T06:35:31;6.80;;;1.20;;
19343;SDS011;9808;52.402;16.678;2022-07-12T06:38:00;2.85;;;1.52;;
19343;SDS011;9808;52.402;16.678;2022-07-12T06:40:27;2.10;;;0.77;;
19343;SDS011;9808;52.402;16.678;2022-07-12T06:42:54;3.42;;;0.95;;
19343;SDS011;9808;52.402;16.678;2022-07-12T06:45:21;2.80;;;1.20;;
19343;SDS011;9808;52.402;16.678;2022-07-12T06:47:48;1.45;;;0.65;;
19343;SDS011;9808;52.402;16.678;2022-07-12T06:50:15;3.35;;;1.30;;
19343;SDS011;9808;52.402;16.678;2022-07-12T06:52:42;2.40;;;0.70;;
19343;SDS011;9808;52.402;16.678;2022-07-12T06:55:09;2.03;;;0.70;;
19343;SDS011;9808;52.402;16.678;2022-07-12T06:57:35;2.30;;;0.90;;
19343;SDS011;9808;52.402;16.678;2022-07-12T07:00:04;2.65;;;0.90;;
19343;SDS011;9808;52.402;16.678;2022-07-12T07:02:31;2.38;;;0.93;;
19343;SDS011;9808;52.402;16.678;2022-07-12T07:04:58;4.88;;;0.98;;
19343;SDS011;9808;52.402;16.678;2022-07-12T07:07:25;1.13;;;0.68;;
19343;SDS011;9808;52.402;16.678;2022-07-12T07:09:52;2.28;;;1.05;;
19343;SDS011;9808;52.402;16.678;2022-07-12T07:12:19;1.55;;;0.70;;
19343;SDS011;9808;52.402;16.678;2022-07-12T07:14:45;1.92;;;0.90;;
19343;SDS011;9808;52.402;16.678;2022-07-12T07:17:14;3.58;;;0.80;;
19343;SDS011;9808;52.402;16.678;2022-07-12T07:19:42;1.45;;;0.80;;
19343;SDS011;9808;52.402;16.678;2022-07-12T07:22:10;1.13;;;0.57;;
19343;SDS011;9808;52.402;16.678;2022-07-12T07:24:38;1.13;;;0.57;;
19343;SDS011;9808;52.402;16.678;2022-07-12T07:27:05;1.35;;;0.57;;
19343;SDS011;9808;52.402;16.678;2022-07-12T07:29:32;2.88;;;0.82;;
19343;SDS011;9808;52.402;16.678;2022-07-12T07:32:17;4.20;;;0.65;;
19343;SDS011;9808;52.402;16.678;2022-07-12T07:34:44;2.33;;;0.75;;
19343;SDS011;9808;52.402;16.678;2022-07-12T07:37:11;0.80;;;0.50;;
19343;SDS011;9808;52.402;16.678;2022-07-12T07:39:38;4.85;;;0.70;;
19343;SDS011;9808;52.402;16.678;2022-07-12T07:42:04;2.83;;;0.80;;
19343;SDS011;9808;52.402;16.678;2022-07-12T07:44:31;4.55;;;0.73;;
19343;SDS011;9808;52.402;16.678;2022-07-12T07:46:59;2.88;;;0.98;;
19343;SDS011;9808;52.402;16.678;2022-07-12T07:49:26;2.80;;;1.08;;
19343;SDS011;9808;52.402;16.678;2022-07-12T07:51:53;1.30;;;0.80;;
19343;SDS011;9808;52.402;16.678;2022-07-12T07:54:20;0.98;;;0.60;;
19343;SDS011;9808;52.402;16.678;2022-07-12T07:56:47;2.17;;;0.70;;
19343;SDS011;9808;52.402;16.678;2022-07-12T07:59:14;1.70;;;0.55;;
19343;SDS011;9808;52.402;16.678;2022-07-12T08:01:41;1.90;;;0.70;;
19343;SDS011;9808;52.402;16.678;2022-07-12T08:04:20;1.00;;;0.60;;
19343;SDS011;9808;52.402;16.678;2022-07-12T08:06:48;3.80;;;0.93;;
19343;SDS011;9808;52.402;16.678;2022-07-12T08:09:16;1.55;;;0.75;;
19343;SDS011;9808;52.402;16.678;2022-07-12T08:11:43;1.50;;;0.80;;
19343;SDS011;9808;52.402;16.678;2022-07-12T08:14:10;1.73;;;0.50;;
19343;SDS011;9808;52.402;16.678;2022-07-12T08:16:37;2.17;;;0.73;;
19343;SDS011;9808;52.402;16.678;2022-07-12T08:19:04;0.77;;;0.57;;
19343;SDS011;9808;52.402;16.678;2022-07-12T08:21:31;3.28;;;0.40;;
19343;SDS011;9808;52.402;16.678;2022-07-12T08:23:58;2.60;;;0.80;;
19343;SDS011;9808;52.402;16.678;2022-07-12T08:26:24;0.98;;;0.52;;
19343;SDS011;9808;52.402;16.678;2022-07-12T08:28:51;2.67;;;0.70;;
19343;SDS011;9808;52.402;16.678;2022-07-12T08:31:18;2.08;;;0.80;;
19343;SDS011;9808;52.402;16.678;2022-07-12T08:33:45;2.17;;;0.80;;
19343;SDS011;9808;52.402;16.678;2022-07-12T08:36:11;2.75;;;0.70;;
19343;SDS011;9808;52.402;16.678;2022-07-12T08:38:38;0.80;;;0.60;;
19343;SDS011;9808;52.402;16.678;2022-07-12T08:41:07;0.68;;;0.47;;
19343;SDS011;9808;52.402;16.678;2022-07-12T08:43:36;0.77;;;0.60;;
19343;SDS011;9808;52.402;16.678;2022-07-12T08:46:06;1.13;;;0.60;;
19343;SDS011;9808;52.402;16.678;2022-07-12T08:48:38;1.65;;;0.63;;
19343;SDS011;9808;52.402;16.678;2022-07-12T08:51:09;2.55;;;0.90;;
19343;SDS011;9808;52.402;16.678;2022-07-12T08:53:38;0.85;;;0.50;;
19343;SDS011;9808;52.402;16.678;2022-07-12T08:56:06;1.75;;;0.55;;
19343;SDS011;9808;52.402;16.678;2022-07-12T08:58:35;2.88;;;0.88;;
19343;SDS011;9808;52.402;16.678;2022-07-12T09:01:02;1.15;;;0.40;;
19343;SDS011;9808;52.402;16.678;2022-07-12T09:03:28;0.40;;;0.40;;
19343;SDS011;9808;52.402;16.678;2022-07-12T09:05:56;1.85;;;0.70;;
19343;SDS011;9808;52.402;16.678;2022-07-12T09:08:25;2.42;;;0.70;;
19343;SDS011;9808;52.402;16.678;2022-07-12T09:11:00;0.90;;;0.45;;
19343;SDS011;9808;52.402;16.678;2022-07-12T09:16:21;0.43;;;0.40;;
19343;SDS011;9808;52.402;16.678;2022-07-12T09:21:45;0.90;;;0.43;;
19343;SDS011;9808;52.402;16.678;2022-07-12T09:24:16;0.85;;;0.60;;
19343;SDS011;9808;52.402;16.678;2022-07-12T09:26:43;0.60;;;0.50;;
19343;SDS011;9808;52.402;16.678;2022-07-12T09:29:12;1.10;;;0.55;;
19343;SDS011;9808;52.402;16.678;2022-07-12T09:31:50;0.88;;;0.40;;
19343;SDS011;9808;52.402;16.678;2022-07-12T09:34:36;1.08;;;0.57;;
19343;SDS011;9808;52.402;16.678;2022-07-12T09:37:21;0.60;;;0.40;;
19343;SDS011;9808;52.402;16.678;2022-07-12T09:39:54;5.78;;;0.50;;
19343;SDS011;9808;52.402;16.678;2022-07-12T09:42:21;1.95;;;0.60;;
19343;SDS011;9808;52.402;16.678;2022-07-12T09:44:54;3.72;;;0.70;;
19343;SDS011;9808;52.402;16.678;2022-07-12T09:47:23;0.75;;;0.40;;
19343;SDS011;9808;52.402;16.678;2022-07-12T09:49:51;0.35;;;0.28;;
19343;SDS011;9808;52.402;16.678;2022-07-12T09:52:21;1.67;;;0.60;;
19343;SDS011;9808;52.402;16.678;2022-07-12T09:54:50;1.95;;;0.75;;
19343;SDS011;9808;52.402;16.678;2022-07-12T09:57:22;0.85;;;0.50;;
19343;SDS011;9808;52.402;16.678;2022-07-12T09:59:58;1.05;;;0.40;;
19343;SDS011;9808;52.402;16.678;2022-07-12T10:02:26;5.35;;;0.60;;
19343;SDS011;9808;52.402;16.678;2022-07-12T10:04:53;3.10;;;0.55;;
19343;SDS011;9808;52.402;16.678;2022-07-12T10:07:21;5.68;;;1.02;;
19343;SDS011;9808;52.402;16.678;2022-07-12T10:09:50;0.32;;;0.30;;
19343;SDS011;9808;52.402;16.678;2022-07-12T10:12:20;0.80;;;0.40;;
19343;SDS011;9808;52.402;16.678;2022-07-12T10:14:52;0.90;;;0.40;;
19343;SDS011;9808;52.402;16.678;2022-07-12T10:17:31;1.63;;;0.68;;
19343;SDS011;9808;52.402;16.678;2022-07-12T10:20:13;0.47;;;0.40;;
19343;SDS011;9808;52.402;16.678;2022-07-12T10:22:48;0.95;;;0.40;;
19343;SDS011;9808;52.402;16.678;2022-07-12T10:25:27;0.52;;;0.40;;
19343;SDS011;9808;52.402;16.678;2022-07-12T10:27:56;3.35;;;0.57;;
19343;SDS011;9808;52.402;16.678;2022-07-12T10:30:24;2.28;;;0.60;;
19343;SDS011;9808;52.402;16.678;2022-07-12T10:32:52;1.70;;;0.40;;
19343;SDS011;9808;52.402;16.678;2022-07-12T10:35:29;0.88;;;0.57;;
19343;SDS011;9808;52.402;16.678;2022-07-12T10:40:40;0.40;;;0.32;;
19343;SDS011;9808;52.402;16.678;2022-07-12T10:45:39;1.20;;;0.40;;
19343;SDS011;9808;52.402;16.678;2022-07-12T10:48:08;0.50;;;0.40;;
19343;SDS011;9808;52.402;16.678;2022-07-12T10:58:32;1.45;;;0.60;;
19343;SDS011;9808;52.402;16.678;2022-07-12T11:01:04;2.05;;;0.52;;
19343;SDS011;9808;52.402;16.678;2022-07-12T11:03:39;0.30;;;0.30;;
19343;SDS011;9808;52.402;16.678;2022-07-12T11:06:08;2.38;;;0.47;;
19343;SDS011;9808;52.402;16.678;2022-07-12T11:08:49;6.15;;;0.60;;
19343;SDS011;9808;52.402;16.678;2022-07-12T11:11:16;1.45;;;0.55;;
19343;SDS011;9808;52.402;16.678;2022-07-12T11:13:44;2.25;;;0.50;;
19343;SDS011;9808;52.402;16.678;2022-07-12T11:16:11;0.77;;;0.40;;
19343;SDS011;9808;52.402;16.678;2022-07-12T11:18:38;1.33;;;0.50;;
19343;SDS011;9808;52.402;16.678;2022-07-12T11:21:05;0.73;;;0.30;;
19343;SDS011;9808;52.402;16.678;2022-07-12T11:23:32;0.70;;;0.30;;
19343;SDS011;9808;52.402;16.678;2022-07-12T11:26:00;0.95;;;0.40;;
19343;SDS011;9808;52.402;16.678;2022-07-12T11:28:28;0.43;;;0.40;;
19343;SDS011;9808;52.402;16.678;2022-07-12T11:31:08;2.30;;;0.40;;
19343;SDS011;9808;52.402;16.678;2022-07-12T11:33:40;0.40;;;0.40;;
19343;SDS011;9808;52.402;16.678;2022-07-12T11:36:08;5.93;;;0.55;;
19343;SDS011;9808;52.402;16.678;2022-07-12T11:38:37;0.85;;;0.40;;
19343;SDS011;9808;52.402;16.678;2022-07-12T11:41:10;1.25;;;0.50;;
19343;SDS011;9808;52.402;16.678;2022-07-12T11:43:38;0.80;;;0.40;;
19343;SDS011;9808;52.402;16.678;2022-07-12T11:46:06;2.33;;;0.50;;
19343;SDS011;9808;52.402;16.678;2022-07-12T11:48:35;0.38;;;0.30;;
19343;SDS011;9808;52.402;16.678;2022-07-12T11:51:06;0.43;;;0.40;;
19343;SDS011;9808;52.402;16.678;2022-07-12T11:53:34;0.88;;;0.40;;
19343;SDS011;9808;52.402;16.678;2022-07-12T11:56:03;1.98;;;0.38;;
19343;SDS011;9808;52.402;16.678;2022-07-12T11:58:31;0.38;;;0.30;;
19343;SDS011;9808;52.402;16.678;2022-07-12T12:00:59;1.00;;;0.35;;
19343;SDS011;9808;52.402;16.678;2022-07-12T12:03:25;0.85;;;0.45;;
19343;SDS011;9808;52.402;16.678;2022-07-12T12:05:54;5.60;;;0.50;;
19343;SDS011;9808;52.402;16.678;2022-07-12T12:08:22;2.50;;;0.30;;
19343;SDS011;9808;52.402;16.678;2022-07-12T12:10:57;0.90;;;0.38;;
19343;SDS011;9808;52.402;16.678;2022-07-12T12:13:25;0.50;;;0.30;;
19343;SDS011;9808;52.402;16.678;2022-07-12T12:16:03;2.60;;;0.40;;
19343;SDS011;9808;52.402;16.678;2022-07-12T12:18:38;1.20;;;0.40;;
19343;SDS011;9808;52.402;16.678;2022-07-12T12:21:07;0.77;;;0.45;;
19343;SDS011;9808;52.402;16.678;2022-07-12T12:23:37;0.20;;;0.17;;
19343;SDS011;9808;52.402;16.678;2022-07-12T12:26:23;0.88;;;0.43;;
19343;SDS011;9808;52.402;16.678;2022-07-12T12:28:56;0.45;;;0.30;;
19343;SDS011;9808;52.402;16.678;2022-07-12T12:31:23;0.60;;;0.40;;
19343;SDS011;9808;52.402;16.678;2022-07-12T12:33:51;6.78;;;0.82;;
19343;SDS011;9808;52.402;16.678;2022-07-12T12:38:54;0.65;;;0.40;;
19343;SDS011;9808;52.402;16.678;2022-07-12T12:41:26;1.38;;;0.50;;
19343;SDS011;9808;52.402;16.678;2022-07-12T12:46:43;1.17;;;0.40;;
19343;SDS011;9808;52.402;16.678;2022-07-12T12:49:11;1.98;;;0.50;;
19343;SDS011;9808;52.402;16.678;2022-07-12T12:51:53;0.65;;;0.40;;
19343;SDS011;9808;52.402;16.678;2022-07-12T12:54:34;1.27;;;0.55;;
19343;SDS011;9808;52.402;16.678;2022-07-12T12:57:06;1.02;;;0.60;;
19343;SDS011;9808;52.402;16.678;2022-07-12T12:59:34;0.90;;;0.40;;
19343;SDS011;9808;52.402;16.678;2022-07-12T13:02:02;0.40;;;0.32;;
19343;SDS011;9808;52.402;16.678;2022-07-12T13:04:31;2.42;;;0.55;;
19343;SDS011;9808;52.402;16.678;2022-07-12T13:06:59;1.30;;;0.50;;
19343;SDS011;9808;52.402;16.678;2022-07-12T13:09:32;7.45;;;0.43;;
19343;SDS011;9808;52.402;16.678;2022-07-12T13:11:59;5.47;;;0.70;;
19343;SDS011;9808;52.402;16.678;2022-07-12T13:14:27;0.43;;;0.30;;
19343;SDS011;9808;52.402;16.678;2022-07-12T13:16:53;0.68;;;0.40;;
19343;SDS011;9808;52.402;16.678;2022-07-12T13:19:20;0.60;;;0.40;;
19343;SDS011;9808;52.402;16.678;2022-07-12T13:21:47;0.82;;;0.50;;
19343;SDS011;9808;52.402;16.678;2022-07-12T13:24:14;0.77;;;0.40;;
19343;SDS011;9808;52.402;16.678;2022-07-12T13:26:41;0.93;;;0.50;;
19343;SDS011;9808;52.402;16.678;2022-07-12T13:29:07;3.10;;;0.52;;
19343;SDS011;9808;52.402;16.678;2022-07-12T13:31:34;0.88;;;0.40;;
19343;SDS011;9808;52.402;16.678;2022-07-12T13:34:01;1.23;;;0.50;;
19343;SDS011;9808;52.402;16.678;2022-07-12T13:36:28;1.15;;;0.50;;
19343;SDS011;9808;52.402;16.678;2022-07-12T13:38:54;1.77;;;0.52;;
19343;SDS011;9808;52.402;16.678;2022-07-12T13:41:41;0.43;;;0.38;;
19343;SDS011;9808;52.402;16.678;2022-07-12T13:44:08;5.97;;;1.15;;
19343;SDS011;9808;52.402;16.678;2022-07-12T13:46:46;1.70;;;0.30;;
19343;SDS011;9808;52.402;16.678;2022-07-12T13:49:13;0.93;;;0.38;;
19343;SDS011;9808;52.402;16.678;2022-07-12T13:51:40;1.50;;;0.30;;
19343;SDS011;9808;52.402;16.678;2022-07-12T13:54:07;1.05;;;0.38;;
19343;SDS011;9808;52.402;16.678;2022-07-12T13:56:34;0.35;;;0.30;;
19343;SDS011;9808;52.402;16.678;2022-07-12T13:59:01;0.93;;;0.47;;
19343;SDS011;9808;52.402;16.678;2022-07-12T14:01:28;1.65;;;0.52;;
19343;SDS011;9808;52.402;16.678;2022-07-12T14:03:55;17.80;;;1.00;;
19343;SDS011;9808;52.402;16.678;2022-07-12T14:06:23;0.43;;;0.30;;
19343;SDS011;9808;52.402;16.678;2022-07-12T14:08:51;6.18;;;0.40;;
19343;SDS011;9808;52.402;16.678;2022-07-12T14:11:19;0.75;;;0.40;;
19343;SDS011;9808;52.402;16.678;2022-07-12T14:13:46;1.35;;;0.43;;
19343;SDS011;9808;52.402;16.678;2022-07-12T14:16:13;0.30;;;0.30;;
19343;SDS011;9808;52.402;16.678;2022-07-12T14:18:40;1.10;;;0.47;;
19343;SDS011;9808;52.402;16.678;2022-07-12T14:21:08;1.35;;;0.40;;
19343;SDS011;9808;52.402;16.678;2022-07-12T14:23:35;2.38;;;0.50;;
19343;SDS011;9808;52.402;16.678;2022-07-12T14:26:03;1.48;;;0.55;;
19343;SDS011;9808;52.402;16.678;2022-07-12T14:28:31;6.97;;;0.57;;
19343;SDS011;9808;52.402;16.678;2022-07-12T14:30:58;0.77;;;0.40;;
19343;SDS011;9808;52.402;16.678;2022-07-12T14:33:26;0.65;;;0.40;;
19343;SDS011;9808;52.402;16.678;2022-07-12T14:35:53;5.57;;;0.50;;
19343;SDS011;9808;52.402;16.678;2022-07-12T14:38:19;0.63;;;0.40;;
19343;SDS011;9808;52.402;16.678;2022-07-12T14:40:46;1.27;;;0.50;;
19343;SDS011;9808;52.402;16.678;2022-07-12T14:43:13;4.30;;;0.30;;
19343;SDS011;9808;52.402;16.678;2022-07-12T14:45:40;0.93;;;0.35;;
19343;SDS011;9808;52.402;16.678;2022-07-12T14:48:08;3.65;;;0.47;;
19343;SDS011;9808;52.402;16.678;2022-07-12T14:50:36;5.82;;;0.50;;
19343;SDS011;9808;52.402;16.678;2022-07-12T14:53:04;6.72;;;0.47;;
19343;SDS011;9808;52.402;16.678;2022-07-12T14:55:31;3.65;;;0.50;;
19343;SDS011;9808;52.402;16.678;2022-07-12T14:57:58;1.00;;;0.32;;
19343;SDS011;9808;52.402;16.678;2022-07-12T15:00:26;8.68;;;0.50;;
19343;SDS011;9808;52.402;16.678;2022-07-12T15:02:53;0.50;;;0.30;;
19343;SDS011;9808;52.402;16.678;2022-07-12T15:05:27;2.08;;;0.70;;
19343;SDS011;9808;52.402;16.678;2022-07-12T15:07:54;1.08;;;0.40;;
19343;SDS011;9808;52.402;16.678;2022-07-12T15:10:22;1.20;;;0.40;;
19343;SDS011;9808;52.402;16.678;2022-07-12T15:12:49;0.47;;;0.30;;
19343;SDS011;9808;52.402;16.678;2022-07-12T15:15:18;2.17;;;0.75;;
19343;SDS011;9808;52.402;16.678;2022-07-12T15:17:50;2.15;;;0.63;;